Погода Сарыкемерна неделю

Жамбылская область, Казахстан

25 - 31 июля
  • 25июля
    Сегодня
    +24°
    +37°
    Ясно и безоблачно
    ВремяПогодаТемператураВлажностьДавлениеВетер, м/сВероятность осадков
    02:00Ясно и безоблачно+23°C39 %703 мм1.3 м/с2 %
    05:00Ясно и безоблачно+22°C43 %703 мм2.0 м/с2 %
    08:00Ясно и безоблачно+28°C31 %705 мм0.8 м/с2 %
    11:00Ясно и безоблачно+34°C20 %705 мм1.7 м/с2 %
    14:00Ясно и безоблачно+36°C17 %704 мм2.9 м/с1 %
    17:00Ясно и безоблачно+36°C18 %704 мм4.5 м/с2 %
    20:00Ясно и безоблачно+31°C27 %704 мм1.1 м/с2 %
    23:00Ясно и безоблачно+27°C32 %704 мм1.3 м/с2 %
  • 26июля
    Пятница
    +21°
    +40°
    Практически безоблачно
    ВремяПогодаТемператураВлажностьДавлениеВетер, м/сВероятность осадков
    02:00Ясно и безоблачно+25°C30 %703 мм2.3 м/с2 %
    05:00Ясно и безоблачно+25°C35 %704 мм3.1 м/с2 %
    08:00Ясно и безоблачно+31°C25 %706 мм2.8 м/с2 %
    11:00Ясно и безоблачно+37°C13 %706 мм2.5 м/с2 %
    14:00Практически безоблачно+39°C12 %706 мм5.4 м/с2 %
    17:00Ясно и безоблачно+38°C14 %706 мм6.6 м/с2 %
    20:00Ясно и безоблачно+33°C26 %706 мм2.5 м/с2 %
    23:00Ясно и безоблачно+26°C27 %707 мм0.4 м/с2 %
  • 27июля
    Суббота
    +21°
    +36°
    Ясно и безоблачно
    ВремяПогодаТемператураВлажностьДавлениеВетер, м/сВероятность осадков
    02:00Ясно и безоблачно+24°C41 %708 мм0.5 м/с2 %
    05:00Ясно и безоблачно+21°C51 %708 мм0.5 м/с2 %
    08:00Ясно и безоблачно+25°C32 %710 мм0.0 м/с2 %
    11:00Ясно и безоблачно+30°C21 %709 мм1.3 м/с2 %
    14:00Ясно и безоблачно+34°C19 %709 мм3.0 м/с2 %
    17:00Ясно и безоблачно+35°C19 %708 мм3.4 м/с2 %
    20:00Ясно и безоблачно+31°C30 %708 мм1.7 м/с2 %
    23:00Ясно и безоблачно+26°C33 %708 мм0.0 м/с2 %
  • 28июля
    Воскресенье
    +20°
    +36°
    Ясно и безоблачно
    ВремяПогодаТемператураВлажностьДавлениеВетер, м/сВероятность осадков
    02:00Ясно и безоблачно+23°C38 %708 мм0.0 м/с2 %
    05:00Ясно и безоблачно+21°C42 %708 мм0.7 м/с2 %
    08:00Ясно и безоблачно+25°C27 %710 мм0.0 м/с2 %
    11:00Ясно и безоблачно+31°C18 %710 мм1.1 м/с2 %
    14:00Ясно и безоблачно+35°C14 %710 мм2.5 м/с2 %
    17:00Ясно и безоблачно+36°C15 %709 мм3.6 м/с2 %
    20:00Ясно и безоблачно+31°C24 %709 мм1.5 м/с2 %
    23:00Ясно и безоблачно+26°C22 %709 мм0.0 м/с2 %
Мы используем cookies
Соглашаюсь